Time;durP1;ratioP1;P1;durP2;ratioP2;P2;SDS_P1;SDS_P2;PMS_P1;PMS_P2;Temp;Humidity;BMP_temperature;BMP_pressure;BME280_temperature;BME280_humidity;BME280_pressure;Samples;Min_cycle;Max_cycle;Signal;HPM_P1;HPM_P2
2023/07/30 06:01:32;;;;;;;39.25;9.75;;;;;;;;;;5389927;23;20257;-84
2023/07/30 06:03:57;;;;;;;43.28;9.98;;;;;;;;;;4914569;29;20052;-84
2023/07/30 06:06:27;;;;;;;45.08;10.05;;;;;;;;;;4914098;29;20425;-84
2023/07/30 06:08:53;;;;;;;38.28;9.63;;;;;;;;;;4914590;29;20457;-84
2023/07/30 06:11:19;;;;;;;47.97;10.52;;;;;;;;;;4913949;29;20051;-84
2023/07/30 06:13:44;;;;;;;41.22;8.60;;;;;;;;;;4914409;29;20045;-88
2023/07/30 06:16:10;;;;;;;45.45;9.10;;;;;;;;;;4914117;29;20044;-88
2023/07/30 06:18:35;;;;;;;37.33;10.32;;;;;;;;;;4914490;29;20067;-88
2023/07/30 06:21:01;;;;;;;33.90;8.93;;;;;;;;;;4914251;29;20099;-86
2023/07/30 06:23:26;;;;;;;41.53;9.45;;;;;;;;;;4906919;29;20508;-85
2023/07/30 06:25:52;;;;;;;41.65;8.98;;;;;;;;;;4906017;29;20465;-87
2023/07/30 06:28:17;;;;;;;31.80;9.07;;;;;;;;;;4905768;29;20044;-86
2023/07/30 06:30:42;;;;;;;39.70;8.23;;;;;;;;;;4905933;29;20637;-86
2023/07/30 06:33:08;;;;;;;27.30;7.40;;;;;;;;;;4905923;29;20126;-86
2023/07/30 06:35:34;;;;;;;37.33;7.95;;;;;;;;;;4906054;29;20060;-87
2023/07/30 06:37:59;;;;;;;29.92;7.28;;;;;;;;;;4906660;29;20300;-86
2023/07/30 06:40:25;;;;;;;35.22;8.48;;;;;;;;;;4905730;29;20418;-88
2023/07/30 06:42:50;;;;;;;30.83;8.00;;;;;;;;;;4906496;29;20314;-87
2023/07/30 06:45:15;;;;;;;33.75;7.35;;;;;;;;;;4905788;29;20527;-87
2023/07/30 06:47:41;;;;;;;29.35;7.75;;;;;;;;;;4889470;29;20504;-85
2023/07/30 06:50:09;;;;;;;34.92;8.05;;;;;;;;;;4907501;29;20099;-85
2023/07/30 06:52:35;;;;;;;29.85;8.45;;;;;;;;;;4909582;29;20044;-85
2023/07/30 06:55:02;;;;;;;27.27;7.65;;;;;;;;;;4909406;29;20476;-88
2023/07/30 06:57:28;;;;;;;30.13;7.82;;;;;;;;;;4909040;29;20389;-86
2023/07/30 06:59:54;;;;;;;30.85;8.80;;;;;;;;;;4908896;29;20476;-87
2023/07/30 07:02:19;;;;;;;38.90;8.07;;;;;;;;;;4908573;29;20044;-85
2023/07/30 07:04:45;;;;;;;33.10;8.82;;;;;;;;;;4909333;29;20052;-86
2023/07/30 07:07:10;;;;;;;43.03;9.63;;;;;;;;;;4908001;29;20075;-84
2023/07/30 07:09:35;;;;;;;43.22;8.95;;;;;;;;;;4910440;29;20048;-82
2023/07/30 07:12:01;;;;;;;34.47;8.75;;;;;;;;;;4910187;29;20067;-84
2023/07/30 07:14:26;;;;;;;33.78;9.18;;;;;;;;;;4900460;29;20048;-85
2023/07/30 07:16:54;;;;;;;38.85;8.80;;;;;;;;;;4893256;29;20059;-86
2023/07/30 07:19:20;;;;;;;30.65;9.15;;;;;;;;;;4910125;29;20214;-85
2023/07/30 07:21:45;;;;;;;39.28;9.45;;;;;;;;;;4910303;29;20445;-84
2023/07/30 07:24:10;;;;;;;33.22;8.15;;;;;;;;;;4910439;29;20070;-88
2023/07/30 07:26:36;;;;;;;33.92;9.23;;;;;;;;;;4910992;29;20048;-84
2023/07/30 07:29:01;;;;;;;35.15;9.02;;;;;;;;;;4909716;29;20927;-85
2023/07/30 07:31:27;;;;;;;38.33;8.98;;;;;;;;;;4909727;29;20063;-85
2023/07/30 07:33:52;;;;;;;34.08;8.75;;;;;;;;;;4910607;29;20601;-85
2023/07/30 07:36:18;;;;;;;35.47;8.80;;;;;;;;;;4906456;29;20040;-84
2023/07/30 07:38:43;;;;;;;32.53;9.05;;;;;;;;;;4909423;29;20099;-86
2023/07/30 07:41:15;;;;;;;43.63;9.52;;;;;;;;;;4909163;29;20107;-85
2023/07/30 07:43:40;;;;;;;30.30;9.73;;;;;;;;;;4909583;29;20048;-85
2023/07/30 07:46:13;;;;;;;37.53;8.23;;;;;;;;;;4909118;29;20055;-84
2023/07/30 07:48:42;;;;;;;38.05;8.82;;;;;;;;;;4909509;29;20055;-84
2023/07/30 07:51:09;;;;;;;30.85;8.23;;;;;;;;;;4909029;29;20044;-85
2023/07/30 07:53:34;;;;;;;32.45;8.73;;;;;;;;;;4909180;29;20048;-85
2023/07/30 07:56:01;;;;;;;42.97;9.27;;;;;;;;;;4908629;29;20052;-85
2023/07/30 07:58:28;;;;;;;30.60;8.30;;;;;;;;;;4908669;29;20501;-81
2023/07/30 08:00:57;;;;;;;37.10;8.55;;;;;;;;;;4909305;29;20056;-83
2023/07/30 08:03:23;;;;;;;36.08;8.57;;;;;;;;;;4908084;29;20048;-84
2023/07/30 08:05:49;;;;;;;33.85;8.57;;;;;;;;;;4909033;29;20044;-83
2023/07/30 08:08:15;;;;;;;28.63;8.25;;;;;;;;;;4908622;29;20087;-84
2023/07/30 08:10:43;;;;;;;24.58;7.88;;;;;;;;;;4908951;29;20575;-83
2023/07/30 08:13:11;;;;;;;29.10;7.72;;;;;;;;;;4908664;29;20055;-83
2023/07/30 08:15:37;;;;;;;28.08;8.52;;;;;;;;;;4909634;29;20048;-84
2023/07/30 08:18:02;;;;;;;25.58;8.30;;;;;;;;;;4909695;29;20095;-84
2023/07/30 08:20:28;;;;;;;36.85;8.27;;;;;;;;;;4905056;29;20428;-83
2023/07/30 08:22:53;;;;;;;38.97;8.75;;;;;;;;;;4901973;29;20056;-83
2023/07/30 08:25:20;;;;;;;31.17;8.18;;;;;;;;;;4913803;29;20083;-83
2023/07/30 08:27:45;;;;;;;39.70;9.20;;;;;;;;;;4908644;29;20091;-82
2023/07/30 08:30:12;;;;;;;39.28;8.20;;;;;;;;;;4903688;29;20052;-82
2023/07/30 08:32:37;;;;;;;35.50;8.20;;;;;;;;;;4909108;29;20041;-82
2023/07/30 08:35:04;;;;;;;39.00;9.20;;;;;;;;;;4907363;29;20545;-83
2023/07/30 08:37:29;;;;;;;32.60;9.15;;;;;;;;;;4906290;29;20131;-82
2023/07/30 08:39:55;;;;;;;31.77;7.57;;;;;;;;;;4909997;29;20187;-84
2023/07/30 08:42:20;;;;;;;35.00;8.75;;;;;;;;;;4915886;29;20127;-85
2023/07/30 08:44:45;;;;;;;31.75;8.25;;;;;;;;;;4910825;29;20048;-85
2023/07/30 08:47:11;;;;;;;36.78;8.13;;;;;;;;;;4912722;29;20096;-83
2023/07/30 08:49:36;;;;;;;31.70;8.13;;;;;;;;;;4909001;29;20168;-84
2023/07/30 08:52:03;;;;;;;25.23;8.15;;;;;;;;;;4909707;29;20378;-84
2023/07/30 08:54:31;;;;;;;27.63;8.18;;;;;;;;;;4913980;29;20120;-83
2023/07/30 08:56:57;;;;;;;26.97;9.00;;;;;;;;;;4909989;29;20060;-84
2023/07/30 08:59:24;;;;;;;27.10;8.05;;;;;;;;;;4913231;29;20416;-83
2023/07/30 09:01:52;;;;;;;29.70;8.07;;;;;;;;;;4914018;29;20044;-84
2023/07/30 09:04:18;;;;;;;29.90;8.10;;;;;;;;;;4914276;29;20048;-84
2023/07/30 09:06:47;;;;;;;30.48;8.05;;;;;;;;;;4915673;29;20512;-83
2023/07/30 09:09:13;;;;;;;34.05;8.95;;;;;;;;;;4913510;29;20047;-84
2023/07/30 09:11:39;;;;;;;30.38;9.27;;;;;;;;;;4913825;29;20549;-83
2023/07/30 09:14:06;;;;;;;26.08;8.20;;;;;;;;;;4912734;29;20036;-84
2023/07/30 09:16:31;;;;;;;26.05;7.55;;;;;;;;;;4913373;29;20486;-85
2023/07/30 09:18:57;;;;;;;32.75;8.32;;;;;;;;;;4914885;29;20079;-84
2023/07/30 09:21:33;;;;;;;22.95;8.05;;;;;;;;;;4913590;29;20084;-85
2023/07/30 09:24:05;;;;;;;33.28;7.72;;;;;;;;;;4914573;29;20040;-85
2023/07/30 09:26:43;;;;;;;33.40;8.63;;;;;;;;;;4914584;29;20112;-85
2023/07/30 09:29:09;;;;;;;26.27;8.50;;;;;;;;;;4914261;29;20054;-85
2023/07/30 09:31:56;;;;;;;35.83;8.10;;;;;;;;;;4914553;29;20465;-85
2023/07/30 09:34:23;;;;;;;22.75;7.38;;;;;;;;;;4914002;29;20043;-86
2023/07/30 09:36:51;;;;;;;35.85;8.05;;;;;;;;;;4914434;29;20132;-86
2023/07/30 09:39:26;;;;;;;32.15;8.18;;;;;;;;;;4895222;29;20059;-86
2023/07/30 09:41:58;;;;;;;34.85;8.57;;;;;;;;;;4895884;29;20048;-85
2023/07/30 09:44:24;;;;;;;37.17;8.93;;;;;;;;;;4903195;29;20538;-84
2023/07/30 09:46:50;;;;;;;37.55;8.93;;;;;;;;;;4913905;29;20044;-85
2023/07/30 09:49:16;;;;;;;30.73;7.75;;;;;;;;;;4913702;29;20044;-86
2023/07/30 09:51:42;;;;;;;29.95;8.35;;;;;;;;;;4914233;29;20103;-86
2023/07/30 09:54:09;;;;;;;30.30;8.93;;;;;;;;;;4913985;29;20485;-86
2023/07/30 09:56:37;;;;;;;21.02;7.28;;;;;;;;;;4914457;29;20072;-86
2023/07/30 09:59:04;;;;;;;29.60;8.27;;;;;;;;;;4914377;29;20072;-86
2023/07/30 10:01:30;;;;;;;29.58;7.97;;;;;;;;;;4912543;29;20095;-86
2023/07/30 10:03:57;;;;;;;24.13;8.18;;;;;;;;;;4911707;29;20063;-86
2023/07/30 10:06:27;;;;;;;26.13;7.55;;;;;;;;;;4912556;29;20047;-86
2023/07/30 10:08:54;;;;;;;27.55;7.93;;;;;;;;;;4914891;29;20104;-85
2023/07/30 10:11:20;;;;;;;27.98;7.70;;;;;;;;;;4914081;29;20097;-85
2023/07/30 10:13:46;;;;;;;29.08;7.90;;;;;;;;;;4914091;29;20141;-86
2023/07/30 10:16:12;;;;;;;25.67;7.82;;;;;;;;;;4914323;29;20518;-85
2023/07/30 10:18:42;;;;;;;30.08;8.23;;;;;;;;;;4914276;29;20468;-85
2023/07/30 10:21:09;;;;;;;24.88;7.97;;;;;;;;;;4913153;29;20055;-85
2023/07/30 10:23:35;;;;;;;23.52;7.00;;;;;;;;;;4920755;29;20171;-85
2023/07/30 10:26:09;;;;;;;29.48;8.43;;;;;;;;;;4922343;29;20070;-85
2023/07/30 10:28:38;;;;;;;19.35;7.25;;;;;;;;;;4917765;29;20085;-87
2023/07/30 10:31:11;;;;;;;;;;;;;;;;;;4918267;29;20040;-84
2023/07/30 10:33:50;;;;;;;27.65;8.30;;;;;;;;;;4917716;29;19918;-87
2023/07/30 10:36:36;;;;;;;;;;;;;;;;;;4917819;29;20134;-87
2023/07/30 10:39:17;;;;;;;22.02;7.43;;;;;;;;;;4918086;29;19919;-86
2023/07/30 10:41:44;;;;;;;27.40;7.63;;;;;;;;;;4917778;29;20099;-85
2023/07/30 10:44:37;;;;;;;18.45;7.53;;;;;;;;;;4917290;29;20076;-87
2023/07/30 10:47:03;;;;;;;23.63;7.22;;;;;;;;;;4917114;29;20052;-86
2023/07/30 10:49:29;;;;;;;19.92;6.97;;;;;;;;;;4917319;29;20907;-85
2023/07/30 10:51:59;;;;;;;19.95;6.38;;;;;;;;;;4922464;29;20048;-86
2023/07/30 10:54:25;;;;;;;21.52;6.88;;;;;;;;;;4916724;29;20393;-86
2023/07/30 10:56:51;;;;;;;23.02;6.95;;;;;;;;;;4911846;29;20036;-85
2023/07/30 10:59:17;;;;;;;22.80;7.13;;;;;;;;;;4903074;29;20131;-86
2023/07/30 11:01:44;;;;;;;31.83;8.02;;;;;;;;;;4917002;29;20040;-85
2023/07/30 11:04:12;;;;;;;23.50;8.13;;;;;;;;;;4916901;29;20525;-85
2023/07/30 11:06:38;;;;;;;28.73;7.40;;;;;;;;;;4917015;29;20130;-84
2023/07/30 11:09:04;;;;;;;24.15;6.15;;;;;;;;;;4917403;29;20183;-82
2023/07/30 11:11:30;;;;;;;26.20;6.90;;;;;;;;;;4917070;29;20055;-84
2023/07/30 11:13:57;;;;;;;21.20;6.53;;;;;;;;;;4917270;29;20048;-84
2023/07/30 11:16:22;;;;;;;19.70;6.82;;;;;;;;;;4916984;29;20513;-86
2023/07/30 11:18:48;;;;;;;17.60;6.18;;;;;;;;;;4916983;29;20055;-83
2023/07/30 11:21:16;;;;;;;16.70;5.88;;;;;;;;;;4913171;29;20539;-81
2023/07/30 11:23:42;;;;;;;19.33;5.50;;;;;;;;;;4916789;29;20084;-84
2023/07/30 11:26:09;;;;;;;18.40;5.47;;;;;;;;;;4898822;29;20051;-84
2023/07/30 11:28:36;;;;;;;14.85;4.70;;;;;;;;;;4916809;29;20052;-87
2023/07/30 11:31:07;;;;;;;16.15;5.28;;;;;;;;;;4913772;29;20044;-88
2023/07/30 11:33:39;;;;;;;12.50;4.57;;;;;;;;;;4913215;29;20048;-87
2023/07/30 11:36:07;;;;;;;14.32;5.15;;;;;;;;;;4912602;29;20052;-86
2023/07/30 11:38:33;;;;;;;14.93;5.50;;;;;;;;;;4915577;29;20131;-88
2023/07/30 11:40:59;;;;;;;15.30;5.13;;;;;;;;;;4911925;29;20076;-86
2023/07/30 11:43:24;;;;;;;19.48;5.88;;;;;;;;;;4915332;29;20512;-83
2023/07/30 11:46:07;;;;;;;21.02;5.90;;;;;;;;;;4926541;29;20054;-83
2023/07/30 11:48:33;;;;;;;23.08;5.78;;;;;;;;;;4923394;29;20035;-84
2023/07/30 11:50:58;;;;;;;18.23;5.68;;;;;;;;;;4924005;29;20044;-84
2023/07/30 11:53:49;;;;;;;17.88;5.03;;;;;;;;;;4926881;29;20051;-86
2023/07/30 11:56:18;;;;;;;17.50;5.88;;;;;;;;;;4917310;29;20047;-87
2023/07/30 11:58:44;;;;;;;21.30;6.10;;;;;;;;;;4908897;29;20122;-85
2023/07/30 12:01:09;;;;;;;27.25;6.57;;;;;;;;;;4914553;29;20127;-86
2023/07/30 12:03:35;;;;;;;16.10;5.43;;;;;;;;;;4915501;29;20048;-87
2023/07/30 12:06:05;;;;;;;15.82;5.70;;;;;;;;;;4916680;29;20040;-87
2023/07/30 12:08:33;;;;;;;14.75;5.20;;;;;;;;;;4915749;29;20108;-87
2023/07/30 12:11:03;;;;;;;16.70;5.70;;;;;;;;;;4915529;29;20517;-88
2023/07/30 12:13:28;;;;;;;20.85;5.50;;;;;;;;;;4910654;29;20049;-89
2023/07/30 12:15:55;;;;;;;13.38;5.35;;;;;;;;;;4909462;29;20055;-87
2023/07/30 12:18:23;;;;;;;17.05;5.43;;;;;;;;;;4915328;29;20048;-87
2023/07/30 12:20:50;;;;;;;17.83;5.32;;;;;;;;;;4916152;29;20063;-85
2023/07/30 12:23:16;;;;;;;14.57;4.95;;;;;;;;;;4915524;29;20050;-88
2023/07/30 12:25:41;;;;;;;15.18;5.25;;;;;;;;;;4915625;29;20461;-88
2023/07/30 12:28:07;;;;;;;14.55;5.50;;;;;;;;;;4915769;29;20127;-87
2023/07/30 12:30:32;;;;;;;15.70;5.50;;;;;;;;;;4915935;29;20055;-88
2023/07/30 12:32:58;;;;;;;20.52;5.40;;;;;;;;;;4917135;29;20044;-86
2023/07/30 12:35:24;;;;;;;18.73;5.65;;;;;;;;;;4925847;29;20416;-88
2023/07/30 12:37:49;;;;;;;15.90;5.15;;;;;;;;;;4928850;29;20044;-87
2023/07/30 12:40:14;;;;;;;14.43;4.82;;;;;;;;;;4919995;29;20043;-87
2023/07/30 12:42:40;;;;;;;15.50;5.13;;;;;;;;;;4918514;29;20043;-85
2023/07/30 12:45:06;;;;;;;18.15;5.15;;;;;;;;;;4909439;29;20044;-83
2023/07/30 12:47:32;;;;;;;15.40;5.35;;;;;;;;;;4908119;29;20047;-87
2023/07/30 12:49:57;;;;;;;14.88;5.38;;;;;;;;;;4909005;29;20064;-85
2023/07/30 12:52:23;;;;;;;17.75;4.93;;;;;;;;;;4908130;29;20052;-85
2023/07/30 12:54:49;;;;;;;16.85;5.30;;;;;;;;;;4908489;29;20131;-86
2023/07/30 12:57:14;;;;;;;18.77;5.30;;;;;;;;;;4908293;29;20072;-86
2023/07/30 12:59:40;;;;;;;12.65;4.95;;;;;;;;;;4908254;29;20048;-86
2023/07/30 13:02:05;;;;;;;11.63;4.95;;;;;;;;;;4908027;29;20528;-86
2023/07/30 13:04:31;;;;;;;18.58;5.55;;;;;;;;;;4908780;29;20420;-85
2023/07/30 13:06:56;;;;;;;13.60;5.10;;;;;;;;;;4908231;29;20052;-85
2023/07/30 13:09:21;;;;;;;18.02;5.45;;;;;;;;;;4907855;29;20044;-86
2023/07/30 13:11:47;;;;;;;18.60;5.82;;;;;;;;;;4907912;29;20198;-87
2023/07/30 13:14:13;;;;;;;13.40;5.10;;;;;;;;;;4900556;29;20622;-86
2023/07/30 13:16:38;;;;;;;14.57;5.38;;;;;;;;;;4903548;29;20040;-87
2023/07/30 13:19:03;;;;;;;17.92;6.05;;;;;;;;;;4916877;29;20038;-85
2023/07/30 13:21:29;;;;;;;19.30;5.82;;;;;;;;;;4912547;29;20075;-87
2023/07/30 13:23:54;;;;;;;17.85;6.45;;;;;;;;;;4887044;29;20996;-87
2023/07/30 13:26:20;;;;;;;15.68;5.25;;;;;;;;;;4908505;29;20063;-86
2023/07/30 13:28:45;;;;;;;17.70;5.40;;;;;;;;;;4907832;29;20040;-89
2023/07/30 13:31:11;;;;;;;16.27;5.53;;;;;;;;;;4901355;29;20047;-87
2023/07/30 13:33:36;;;;;;;24.77;5.57;;;;;;;;;;4907472;29;20044;-88
2023/07/30 13:36:02;;;;;;;14.77;4.93;;;;;;;;;;4896601;29;20048;-87
2023/07/30 13:38:28;;;;;;;18.00;5.80;;;;;;;;;;4907993;29;20048;-86
2023/07/30 13:40:54;;;;;;;19.58;5.40;;;;;;;;;;4909373;29;20053;-88
2023/07/30 13:43:19;;;;;;;18.05;5.47;;;;;;;;;;4908112;29;20055;-88
2023/07/30 13:45:45;;;;;;;19.13;5.65;;;;;;;;;;4880414;29;20533;-87
2023/07/30 13:48:10;;;;;;;17.05;5.60;;;;;;;;;;4907771;29;20040;-87
2023/07/30 13:50:36;;;;;;;16.27;5.18;;;;;;;;;;4908179;29;20071;-85
2023/07/30 13:53:01;;;;;;;16.23;4.95;;;;;;;;;;4907841;29;22199;-87
2023/07/30 13:55:27;;;;;;;18.10;4.90;;;;;;;;;;4909378;29;20048;-87
2023/07/30 13:57:52;;;;;;;15.93;4.93;;;;;;;;;;4916617;29;20488;-88
2023/07/30 14:00:17;;;;;;;19.35;5.20;;;;;;;;;;4911725;29;20052;-86
2023/07/30 14:02:43;;;;;;;15.05;5.25;;;;;;;;;;4911214;29;20385;-85
2023/07/30 14:05:10;;;;;;;16.75;5.25;;;;;;;;;;4911077;29;20040;-87
2023/07/30 14:07:36;;;;;;;16.58;5.10;;;;;;;;;;4912807;29;20382;-88
2023/07/30 14:10:02;;;;;;;20.00;5.82;;;;;;;;;;4916405;29;20040;-88
2023/07/30 14:12:27;;;;;;;19.13;5.25;;;;;;;;;;4915127;29;20040;-87
2023/07/30 14:14:52;;;;;;;14.23;5.55;;;;;;;;;;4916855;29;20048;-88
2023/07/30 14:17:18;;;;;;;17.08;5.72;;;;;;;;;;4916090;29;20054;-88
2023/07/30 14:19:43;;;;;;;17.83;5.63;;;;;;;;;;4916632;29;20054;-88
2023/07/30 14:22:08;;;;;;;18.88;6.07;;;;;;;;;;4915289;29;20072;-86
2023/07/30 14:24:35;;;;;;;18.10;5.90;;;;;;;;;;4916546;29;20040;-89
2023/07/30 14:27:00;;;;;;;17.92;5.13;;;;;;;;;;4919633;29;20035;-87
2023/07/30 14:29:26;;;;;;;21.92;5.90;;;;;;;;;;4927433;29;20084;-85
2023/07/30 14:31:51;;;;;;;19.95;5.63;;;;;;;;;;4925549;29;20050;-88
2023/07/30 14:34:16;;;;;;;17.73;5.40;;;;;;;;;;4928446;29;20051;-87
2023/07/30 14:36:42;;;;;;;18.02;6.03;;;;;;;;;;4916996;29;20059;-88
2023/07/30 14:39:07;;;;;;;16.20;5.60;;;;;;;;;;4917463;29;20044;-88
2023/07/30 14:41:33;;;;;;;15.43;5.95;;;;;;;;;;4917674;29;20044;-87
2023/07/30 14:43:59;;;;;;;17.45;5.82;;;;;;;;;;4917609;29;20517;-86
2023/07/30 14:46:24;;;;;;;11.15;5.45;;;;;;;;;;4917663;29;20063;-88
2023/07/30 14:48:50;;;;;;;17.88;6.05;;;;;;;;;;4917605;29;20420;-88
2023/07/30 14:51:16;;;;;;;15.93;6.20;;;;;;;;;;4916748;29;20044;-87
2023/07/30 14:53:41;;;;;;;21.10;5.97;;;;;;;;;;4917747;29;20568;-88
2023/07/30 14:56:06;;;;;;;18.75;6.22;;;;;;;;;;4916883;29;20125;-87
2023/07/30 14:58:32;;;;;;;19.55;5.75;;;;;;;;;;4916720;29;20051;-87
2023/07/30 15:00:57;;;;;;;17.05;5.63;;;;;;;;;;4916850;29;20541;-88
2023/07/30 15:03:22;;;;;;;16.45;6.03;;;;;;;;;;4916465;29;20139;-85
2023/07/30 15:05:48;;;;;;;17.13;5.80;;;;;;;;;;4917365;29;20092;-87
2023/07/30 15:08:13;;;;;;;16.13;6.00;;;;;;;;;;4915918;29;20545;-87
2023/07/30 15:10:39;;;;;;;17.75;5.75;;;;;;;;;;4915323;29;20099;-87
2023/07/30 15:13:04;;;;;;;16.67;5.95;;;;;;;;;;4915894;29;20560;-84
2023/07/30 15:15:29;;;;;;;19.15;6.05;;;;;;;;;;4917368;29;20052;-88
2023/07/30 15:17:55;;;;;;;15.00;6.10;;;;;;;;;;4916390;29;20051;-87
2023/07/30 15:20:20;;;;;;;18.98;6.53;;;;;;;;;;4915953;29;20408;-88
2023/07/30 15:22:46;;;;;;;18.63;5.80;;;;;;;;;;4900464;29;20043;-89
2023/07/30 15:25:11;;;;;;;16.45;5.70;;;;;;;;;;4916331;29;20044;-89
2023/07/30 15:27:36;;;;;;;16.13;5.93;;;;;;;;;;4917837;29;20040;-89
2023/07/30 15:30:02;;;;;;;21.25;5.70;;;;;;;;;;4916291;29;20504;-88
2023/07/30 15:32:32;;;;;;;15.23;5.63;;;;;;;;;;4916041;29;20123;-89
2023/07/30 15:34:58;;;;;;;20.65;5.72;;;;;;;;;;4921786;29;20040;-87
2023/07/30 15:37:24;;;;;;;15.77;5.18;;;;;;;;;;4906263;29;20067;-86
2023/07/30 15:39:49;;;;;;;18.83;5.50;;;;;;;;;;4905870;29;20055;-85
2023/07/30 15:42:14;;;;;;;21.30;5.82;;;;;;;;;;4906268;29;20086;-87
2023/07/30 15:44:40;;;;;;;13.35;5.35;;;;;;;;;;4906162;29;20117;-85
2023/07/30 15:47:05;;;;;;;17.42;6.10;;;;;;;;;;4903638;29;20074;-87
2023/07/30 15:49:31;;;;;;;16.80;5.50;;;;;;;;;;4909132;29;20098;-85
2023/07/30 15:51:56;;;;;;;20.02;6.00;;;;;;;;;;4909258;29;20067;-87
2023/07/30 15:54:35;;;;;;;19.73;6.20;;;;;;;;;;4904799;29;20048;-85
2023/07/30 15:57:02;;;;;;;14.27;5.75;;;;;;;;;;4902234;29;20274;-85
2023/07/30 15:59:28;;;;;;;16.33;5.55;;;;;;;;;;4910734;29;20098;-84
2023/07/30 16:01:54;;;;;;;14.27;5.13;;;;;;;;;;4897215;29;20505;-87
2023/07/30 16:04:21;;;;;;;16.08;5.57;;;;;;;;;;4924722;29;20059;-85
2023/07/30 16:06:46;;;;;;;16.60;5.70;;;;;;;;;;4923978;29;20100;-84
2023/07/30 16:09:12;;;;;;;20.48;5.70;;;;;;;;;;4921613;29;20449;-86
2023/07/30 16:11:38;;;;;;;21.63;7.18;;;;;;;;;;4920462;29;20468;-87
2023/07/30 16:14:04;;;;;;;16.80;5.25;;;;;;;;;;4924007;29;20058;-87
2023/07/30 16:16:30;;;;;;;16.42;5.47;;;;;;;;;;4922972;29;20044;-86
2023/07/30 16:18:56;;;;;;;19.25;5.68;;;;;;;;;;4901250;29;20055;-86
2023/07/30 16:21:21;;;;;;;18.38;5.75;;;;;;;;;;4923177;29;20160;-86
2023/07/30 16:23:47;;;;;;;16.70;5.32;;;;;;;;;;4917207;29;20540;-86
2023/07/30 16:26:12;;;;;;;16.88;5.75;;;;;;;;;;4898741;29;20621;-87
2023/07/30 16:28:40;;;;;;;17.77;5.35;;;;;;;;;;4920181;29;20059;-86
2023/07/30 16:31:05;;;;;;;17.23;6.00;;;;;;;;;;4924191;29;20047;-85
2023/07/30 16:33:31;;;;;;;15.45;5.45;;;;;;;;;;4920823;29;20044;-85
2023/07/30 16:35:56;;;;;;;18.15;5.45;;;;;;;;;;4924256;29;20040;-85
2023/07/30 16:38:22;;;;;;;17.48;6.40;;;;;;;;;;4923762;29;20086;-86
2023/07/30 16:40:47;;;;;;;11.93;5.35;;;;;;;;;;4922811;29;20135;-86
2023/07/30 16:43:14;;;;;;;16.75;6.15;;;;;;;;;;4923482;29;20047;-86
2023/07/30 16:45:39;;;;;;;16.55;5.68;;;;;;;;;;4914527;29;20131;-85
2023/07/30 16:48:05;;;;;;;14.07;5.32;;;;;;;;;;4896659;29;20626;-84
2023/07/30 16:50:30;;;;;;;15.88;5.60;;;;;;;;;;4914951;29;20051;-85
2023/07/30 16:52:56;;;;;;;14.15;5.18;;;;;;;;;;4914161;29;20107;-86
2023/07/30 16:55:21;;;;;;;18.92;5.80;;;;;;;;;;4913510;29;20048;-85
2023/07/30 16:57:47;;;;;;;15.63;5.50;;;;;;;;;;4896996;29;20051;-88
2023/07/30 17:00:12;;;;;;;17.67;6.05;;;;;;;;;;4896931;29;20103;-86
2023/07/30 17:02:38;;;;;;;15.95;5.15;;;;;;;;;;4914712;29;20059;-87
2023/07/30 17:05:06;;;;;;;17.05;5.70;;;;;;;;;;4914326;29;20072;-87
2023/07/30 17:07:32;;;;;;;;;;;;;;;;;;4913757;29;20520;-89
2023/07/30 17:09:58;;;;;;;13.50;5.40;;;;;;;;;;4929844;29;20017;-90
2023/07/30 17:12:23;;;;;;;20.85;5.80;;;;;;;;;;4914313;29;20054;-88
2023/07/30 17:14:49;;;;;;;17.58;6.13;;;;;;;;;;4915180;29;20516;-91
2023/07/30 17:17:14;;;;;;;12.98;6.20;;;;;;;;;;4916304;29;20096;-89
2023/07/30 17:19:41;;;;;;;16.90;6.38;;;;;;;;;;4914475;29;20047;-88
2023/07/30 17:22:06;;;;;;;17.50;6.10;;;;;;;;;;4897043;29;20122;-89
2023/07/30 17:24:35;;;;;;;18.60;5.45;;;;;;;;;;4898392;29;20512;-87
2023/07/30 17:27:00;;;;;;;;;;;;;;;;;;4914749;29;20425;-87
2023/07/30 17:29:26;;;;;;;17.45;5.65;;;;;;;;;;4928768;29;19923;-86
2023/07/30 17:31:52;;;;;;;15.32;5.53;;;;;;;;;;4912018;29;20040;-86
2023/07/30 17:34:19;;;;;;;18.17;6.15;;;;;;;;;;4911641;29;20099;-87
2023/07/30 17:36:47;;;;;;;18.25;5.90;;;;;;;;;;4902743;29;20044;-90
2023/07/30 17:39:13;;;;;;;20.67;6.40;;;;;;;;;;4903134;29;20055;-89
2023/07/30 17:41:38;;;;;;;20.00;7.15;;;;;;;;;;4904965;29;20442;-85
2023/07/30 17:44:06;;;;;;;16.20;6.40;;;;;;;;;;4907448;29;20044;-92
2023/07/30 17:46:32;;;;;;;20.75;6.60;;;;;;;;;;4912195;29;20127;-92
2023/07/30 17:48:58;;;;;;;15.05;5.95;;;;;;;;;;4901916;29;20135;-93
2023/07/30 17:51:23;;;;;;;19.88;6.68;;;;;;;;;;4909858;29;20448;-94
2023/07/30 17:53:49;;;;;;;19.83;6.68;;;;;;;;;;4901631;29;20045;-93
2023/07/30 17:56:14;;;;;;;21.05;6.00;;;;;;;;;;4895486;29;20048;-92
2023/07/30 17:58:40;;;;;;;21.58;5.80;;;;;;;;;;4911275;29;20084;-92
2023/07/30 18:01:06;;;;;;;21.50;6.20;;;;;;;;;;4900512;29;20052;-92
2023/07/30 18:03:35;;;;;;;22.45;6.18;;;;;;;;;;4879272;29;20047;-91
2023/07/30 18:06:02;;;;;;;19.15;5.70;;;;;;;;;;4872721;29;20115;-92
2023/07/30 18:08:27;;;;;;;23.98;6.38;;;;;;;;;;4890444;29;20541;-91
2023/07/30 18:10:53;;;;;;;22.52;6.13;;;;;;;;;;4914554;29;20051;-93
2023/07/30 18:13:20;;;;;;;23.83;7.00;;;;;;;;;;4905451;29;20062;-91
2023/07/30 18:15:45;;;;;;;15.60;5.95;;;;;;;;;;4910945;29;20096;-90
2023/07/30 18:18:11;;;;;;;19.10;6.47;;;;;;;;;;4909642;29;20040;-93
2023/07/30 18:20:37;;;;;;;17.80;5.93;;;;;;;;;;4909637;29;20056;-92
2023/07/30 18:23:04;;;;;;;20.40;6.28;;;;;;;;;;4907529;29;20058;-89
2023/07/30 18:25:32;;;;;;;22.60;7.32;;;;;;;;;;4888634;29;20529;-91
2023/07/30 18:27:58;;;;;;;24.13;7.53;;;;;;;;;;4906035;29;20770;-92
2023/07/30 18:30:24;;;;;;;21.65;6.75;;;;;;;;;;4897868;29;20053;-91
2023/07/30 18:32:49;;;;;;;23.52;7.40;;;;;;;;;;4898753;29;20100;-89
2023/07/30 18:35:15;;;;;;;21.63;6.78;;;;;;;;;;4889934;29;20041;-88
2023/07/30 18:37:41;;;;;;;19.35;6.63;;;;;;;;;;4901602;29;20060;-91
2023/07/30 18:40:07;;;;;;;22.17;6.78;;;;;;;;;;4907190;29;20111;-87
2023/07/30 18:42:33;;;;;;;23.10;7.15;;;;;;;;;;4895449;29;20139;-88
2023/07/30 18:44:58;;;;;;;27.98;8.23;;;;;;;;;;4920606;28;20142;-89
2023/07/30 18:47:25;;;;;;;27.65;12.15;;;;;;;;;;4901008;29;20124;-93
2023/07/30 18:49:51;;;;;;;28.17;8.98;;;;;;;;;;4904380;29;20045;-88
2023/07/30 18:52:19;;;;;;;27.80;7.90;;;;;;;;;;4904855;29;20071;-89
2023/07/30 18:54:45;;;;;;;18.27;7.13;;;;;;;;;;4901186;29;20046;-89
2023/07/30 18:57:10;;;;;;;27.25;9.52;;;;;;;;;;4913144;29;20040;-92
2023/07/30 18:59:39;;;;;;;25.45;7.53;;;;;;;;;;4911753;29;20036;-89
2023/07/30 19:02:06;;;;;;;26.00;6.82;;;;;;;;;;4894317;29;20044;-88
2023/07/30 19:04:31;;;;;;;21.73;8.18;;;;;;;;;;4917636;29;20056;-89
2023/07/30 19:06:57;;;;;;;26.70;7.43;;;;;;;;;;4908279;29;20414;-89
2023/07/30 19:09:22;;;;;;;21.25;6.57;;;;;;;;;;4911953;29;20062;-89
2023/07/30 19:11:48;;;;;;;24.13;7.68;;;;;;;;;;4924120;29;20489;-89
2023/07/30 19:14:13;;;;;;;17.80;7.18;;;;;;;;;;4912025;29;20050;-90
2023/07/30 19:16:38;;;;;;;24.23;8.00;;;;;;;;;;4912737;29;20056;-90
2023/07/30 19:19:04;;;;;;;25.23;7.60;;;;;;;;;;4917622;29;20105;-88
2023/07/30 19:21:29;;;;;;;22.17;7.30;;;;;;;;;;4917256;29;20122;-90
2023/07/30 19:23:55;;;;;;;22.70;7.30;;;;;;;;;;4911543;29;20083;-90
2023/07/30 19:26:21;;;;;;;29.67;7.50;;;;;;;;;;4921133;29;20146;-90
2023/07/30 19:28:46;;;;;;;24.58;7.88;;;;;;;;;;4915920;29;20544;-88
2023/07/30 19:31:12;;;;;;;26.95;7.90;;;;;;;;;;4895994;29;20072;-88
2023/07/30 19:33:41;;;;;;;23.88;8.90;;;;;;;;;;4910999;29;20044;-89
2023/07/30 19:36:12;;;;;;;22.20;6.90;;;;;;;;;;4909357;29;20401;-90
2023/07/30 19:38:39;;;;;;;26.52;6.72;;;;;;;;;;4911590;29;20053;-89
2023/07/30 19:41:06;;;;;;;24.35;8.15;;;;;;;;;;4905718;29;20067;-89
2023/07/30 19:43:35;;;;;;;24.50;8.15;;;;;;;;;;4900781;29;20052;-89
2023/07/30 19:46:00;;;;;;;25.33;8.02;;;;;;;;;;4910757;29;20052;-88
2023/07/30 19:48:26;;;;;;;25.88;6.93;;;;;;;;;;4909630;29;20056;-88
2023/07/30 19:50:52;;;;;;;32.38;7.57;;;;;;;;;;4910783;29;20120;-89
2023/07/30 19:53:18;;;;;;;32.42;8.13;;;;;;;;;;4922452;29;20048;-88
2023/07/30 19:55:44;;;;;;;27.75;7.47;;;;;;;;;;4897606;29;20835;-87
2023/07/30 19:58:30;;;;;;;29.75;8.00;;;;;;;;;;4914482;29;20043;-86
2023/07/30 20:00:56;;;;;;;31.17;8.80;;;;;;;;;;4909615;29;20099;-87
2023/07/30 20:03:22;;;;;;;32.15;8.23;;;;;;;;;;4908423;29;20182;-87
2023/07/30 20:05:48;;;;;;;32.95;8.25;;;;;;;;;;4901826;29;20091;-89
2023/07/30 20:08:13;;;;;;;26.23;7.80;;;;;;;;;;4907448;29;20496;-89
2023/07/30 20:10:38;;;;;;;34.38;8.38;;;;;;;;;;4906940;29;20072;-90
2023/07/30 20:13:04;;;;;;;30.25;8.20;;;;;;;;;;4901337;29;20410;-88
2023/07/30 20:15:33;;;;;;;28.42;7.70;;;;;;;;;;4902837;29;20153;-89
2023/07/30 20:18:00;;;;;;;21.90;7.78;;;;;;;;;;4908361;29;20056;-89
2023/07/30 20:20:25;;;;;;;26.33;8.23;;;;;;;;;;4910858;29;20048;-88
2023/07/30 20:22:51;;;;;;;27.75;8.10;;;;;;;;;;4910383;29;20051;-87
2023/07/30 20:25:16;;;;;;;30.58;7.95;;;;;;;;;;4909021;29;20044;-87
2023/07/30 20:27:42;;;;;;;25.75;7.50;;;;;;;;;;4902161;29;20063;-88